Time;durP1;ratioP1;P1;durP2;ratioP2;P2;SDS_P1;SDS_P2;PMS_P1;PMS_P2;Temp;Humidity;BMP_temperature;BMP_pressure;BME280_temperature;BME280_humidity;BME280_pressure;Samples;Min_cycle;Max_cycle;Signal;HPM_P1;HPM_P2
2023/08/16 00:01:34;;;;;;;2.90;2.30;;;;;;;;;;6183591;23;20198;-95
2023/08/16 00:04:01;;;;;;;2.10;2.00;;;;;;;;;;6183601;23;20179;-95
2023/08/16 00:06:30;;;;;;;2.83;1.80;;;;;;;;;;6184452;23;20183;-95
2023/08/16 00:08:58;;;;;;;3.85;3.13;;;;;;;;;;6184356;23;20162;-95
2023/08/16 00:11:26;;;;;;;4.75;3.08;;;;;;;;;;6184365;23;20179;-95
2023/08/16 00:13:54;;;;;;;3.97;2.90;;;;;;;;;;6184535;23;20166;-94
2023/08/16 00:16:21;;;;;;;2.95;2.72;;;;;;;;;;6184648;23;20169;-95
2023/08/16 00:18:50;;;;;;;2.65;2.25;;;;;;;;;;6184422;23;20159;-94
2023/08/16 00:21:17;;;;;;;2.58;2.38;;;;;;;;;;6184536;23;20183;-95
2023/08/16 00:23:46;;;;;;;2.17;1.98;;;;;;;;;;6184526;23;20166;-94
2023/08/16 00:26:14;;;;;;;3.28;2.97;;;;;;;;;;6183926;23;20183;-94
2023/08/16 00:28:45;;;;;;;2.08;1.98;;;;;;;;;;6184353;23;20167;-94
2023/08/16 00:31:13;;;;;;;2.30;1.98;;;;;;;;;;6184298;23;20194;-96
2023/08/16 00:33:40;;;;;;;1.88;1.77;;;;;;;;;;6163457;23;20168;-94
2023/08/16 00:36:09;;;;;;;2.50;2.30;;;;;;;;;;6154712;23;20152;-94
2023/08/16 00:38:42;;;;;;;2.60;2.40;;;;;;;;;;6154859;23;20148;-96
2023/08/16 00:41:11;;;;;;;3.10;2.80;;;;;;;;;;6154516;23;20183;-94
2023/08/16 00:43:39;;;;;;;4.25;3.53;;;;;;;;;;6154300;23;20160;-94
2023/08/16 00:46:10;;;;;;;3.15;2.85;;;;;;;;;;6154495;23;20235;-95
2023/08/16 00:48:40;;;;;;;5.60;4.18;;;;;;;;;;6154756;23;20152;-95
2023/08/16 00:51:08;;;;;;;3.75;3.42;;;;;;;;;;6154415;23;20179;-95
2023/08/16 00:53:36;;;;;;;4.70;3.58;;;;;;;;;;6154515;23;20164;-94
2023/08/16 00:56:05;;;;;;;6.43;3.60;;;;;;;;;;6154698;23;20199;-94
2023/08/16 00:58:34;;;;;;;3.63;3.33;;;;;;;;;;6154243;23;20160;-94
2023/08/16 01:01:02;;;;;;;6.15;3.92;;;;;;;;;;6154102;23;20210;-95
2023/08/16 01:03:30;;;;;;;3.67;3.35;;;;;;;;;;6154170;23;20171;-96
2023/08/16 01:05:58;;;;;;;4.43;3.85;;;;;;;;;;6154123;23;20183;-96
2023/08/16 01:08:26;;;;;;;4.70;4.00;;;;;;;;;;6154271;23;20168;-95
2023/08/16 01:11:00;;;;;;;4.40;4.00;;;;;;;;;;6153907;23;20195;-95
2023/08/16 01:13:40;;;;;;;4.35;3.95;;;;;;;;;;6154372;23;20182;-93
2023/08/16 01:16:11;;;;;;;3.45;3.15;;;;;;;;;;6154353;23;20164;-94
2023/08/16 01:18:41;;;;;;;3.58;3.28;;;;;;;;;;6154344;23;20203;-95
2023/08/16 01:21:12;;;;;;;3.63;3.33;;;;;;;;;;6154197;23;20199;-95
2023/08/16 01:23:47;;;;;;;3.72;3.42;;;;;;;;;;6154122;23;20160;-94
2023/08/16 01:26:27;;;;;;;3.95;3.20;;;;;;;;;;6153636;23;20212;-95
2023/08/16 01:28:55;;;;;;;4.53;4.13;;;;;;;;;;6154142;23;20163;-95
2023/08/16 01:31:23;;;;;;;3.78;3.47;;;;;;;;;;6153914;23;20204;-95
2023/08/16 01:33:51;;;;;;;2.47;2.28;;;;;;;;;;6153455;23;20188;-93
2023/08/16 01:36:18;;;;;;;2.95;2.67;;;;;;;;;;6154034;23;20163;-95
2023/08/16 01:38:47;;;;;;;2.38;2.17;;;;;;;;;;6154157;23;20160;-94
2023/08/16 01:41:21;;;;;;;2.45;2.25;;;;;;;;;;6153748;23;20190;-94
2023/08/16 01:43:51;;;;;;;2.13;2.03;;;;;;;;;;6153580;23;20211;-95
2023/08/16 01:46:20;;;;;;;1.75;1.65;;;;;;;;;;6154016;23;20284;-95
2023/08/16 01:48:49;;;;;;;1.58;1.48;;;;;;;;;;6154082;23;20148;-95
2023/08/16 01:51:17;;;;;;;2.00;1.50;;;;;;;;;;6153621;23;20188;-95
2023/08/16 01:53:50;;;;;;;2.03;1.80;;;;;;;;;;6153359;23;20171;-94
2023/08/16 01:56:17;;;;;;;1.60;1.50;;;;;;;;;;6153952;23;20152;-94
2023/08/16 01:58:45;;;;;;;3.22;1.90;;;;;;;;;;6153832;23;20164;-94
2023/08/16 02:01:14;;;;;;;2.00;1.90;;;;;;;;;;6153444;23;20172;-95
2023/08/16 02:03:42;;;;;;;2.58;2.38;;;;;;;;;;6153899;23;20148;-95
2023/08/16 02:06:10;;;;;;;3.20;2.80;;;;;;;;;;6153477;23;20191;-94
2023/08/16 02:08:37;;;;;;;2.80;2.60;;;;;;;;;;6153676;23;20156;-94
2023/08/16 02:11:06;;;;;;;3.90;2.80;;;;;;;;;;6153230;23;20176;-95
2023/08/16 02:13:34;;;;;;;2.00;1.90;;;;;;;;;;6153765;23;20167;-96
2023/08/16 02:16:03;;;;;;;2.85;2.40;;;;;;;;;;6152788;23;20202;-84
2023/08/16 02:18:32;;;;;;;3.65;3.25;;;;;;;;;;6156894;23;20564;-83
2023/08/16 02:21:00;;;;;;;2.75;2.55;;;;;;;;;;6158161;23;20190;-83
2023/08/16 02:23:27;;;;;;;3.50;3.20;;;;;;;;;;6156352;23;20278;-83
2023/08/16 02:25:55;;;;;;;3.38;3.08;;;;;;;;;;6156748;23;20254;-83
2023/08/16 02:28:22;;;;;;;3.60;3.30;;;;;;;;;;6156446;23;20206;-83
2023/08/16 02:30:50;;;;;;;3.63;3.33;;;;;;;;;;6156284;23;20207;-84
2023/08/16 02:33:17;;;;;;;5.22;3.22;;;;;;;;;;6156710;23;20234;-83
2023/08/16 02:35:46;;;;;;;4.38;3.97;;;;;;;;;;6156244;23;20258;-83
2023/08/16 02:38:13;;;;;;;3.60;3.22;;;;;;;;;;6156363;23;20249;-83
2023/08/16 02:40:41;;;;;;;3.20;2.90;;;;;;;;;;6156685;23;20715;-83
2023/08/16 02:43:09;;;;;;;2.90;2.70;;;;;;;;;;6156241;23;20262;-83
2023/08/16 02:45:37;;;;;;;2.10;2.00;;;;;;;;;;6156601;23;20504;-83
2023/08/16 02:48:05;;;;;;;2.30;2.10;;;;;;;;;;6156845;23;20206;-82
2023/08/16 02:50:33;;;;;;;3.28;2.90;;;;;;;;;;6156838;23;20257;-83
2023/08/16 02:53:01;;;;;;;3.17;2.88;;;;;;;;;;6156415;23;20282;-83
2023/08/16 02:55:29;;;;;;;3.13;2.67;;;;;;;;;;6155245;23;20207;-84
2023/08/16 02:57:56;;;;;;;3.33;3.03;;;;;;;;;;6156168;23;20183;-83
2023/08/16 03:00:24;;;;;;;2.33;1.95;;;;;;;;;;6156031;23;20249;-83
2023/08/16 03:02:51;;;;;;;2.13;1.98;;;;;;;;;;6156207;23;20282;-83
2023/08/16 03:05:19;;;;;;;2.83;2.30;;;;;;;;;;6156440;23;20175;-83
2023/08/16 03:07:46;;;;;;;2.65;1.98;;;;;;;;;;6155054;23;20695;-84
2023/08/16 03:10:15;;;;;;;2.40;2.25;;;;;;;;;;6155744;23;20175;-84
2023/08/16 03:12:43;;;;;;;2.38;2.17;;;;;;;;;;6156195;23;20205;-84
2023/08/16 03:15:11;;;;;;;4.32;3.42;;;;;;;;;;6151742;23;20497;-83
2023/08/16 03:17:39;;;;;;;3.53;2.45;;;;;;;;;;6178888;23;20189;-84
2023/08/16 03:20:09;;;;;;;2.63;2.42;;;;;;;;;;6179870;23;20261;-84
2023/08/16 03:22:37;;;;;;;2.80;2.50;;;;;;;;;;6181547;23;20202;-85
2023/08/16 03:25:05;;;;;;;3.10;2.90;;;;;;;;;;6180225;23;20261;-84
2023/08/16 03:27:34;;;;;;;3.92;3.33;;;;;;;;;;6181930;23;20584;-83
2023/08/16 03:30:01;;;;;;;2.88;2.67;;;;;;;;;;6180884;23;20178;-83
2023/08/16 03:32:28;;;;;;;2.70;2.47;;;;;;;;;;6181759;23;20230;-85
2023/08/16 03:34:56;;;;;;;3.15;2.72;;;;;;;;;;6181264;23;20672;-83
2023/08/16 03:37:23;;;;;;;2.88;2.58;;;;;;;;;;6180996;23;20217;-84
2023/08/16 03:39:52;;;;;;;4.57;2.63;;;;;;;;;;6181030;23;20221;-83
2023/08/16 03:42:19;;;;;;;2.78;2.55;;;;;;;;;;6181059;23;20289;-83
2023/08/16 03:44:48;;;;;;;2.45;2.25;;;;;;;;;;6180935;23;20265;-83
2023/08/16 03:47:15;;;;;;;1.90;1.80;;;;;;;;;;6179999;23;20218;-84
2023/08/16 03:49:44;;;;;;;2.15;1.98;;;;;;;;;;6181036;23;20249;-83
2023/08/16 03:52:12;;;;;;;2.95;2.45;;;;;;;;;;6180766;23;20183;-84
2023/08/16 03:54:39;;;;;;;2.28;1.92;;;;;;;;;;6181176;23;20552;-83
2023/08/16 03:57:07;;;;;;;2.55;2.35;;;;;;;;;;6179986;23;20206;-83
2023/08/16 03:59:34;;;;;;;2.42;2.22;;;;;;;;;;6180349;23;20209;-83
2023/08/16 04:02:04;;;;;;;1.83;1.73;;;;;;;;;;6180049;23;20217;-83
2023/08/16 04:04:31;;;;;;;1.60;1.50;;;;;;;;;;6182165;23;20575;-84
2023/08/16 04:06:59;;;;;;;1.83;1.73;;;;;;;;;;6181590;23;20204;-83
2023/08/16 04:09:27;;;;;;;1.77;1.67;;;;;;;;;;6180910;23;20549;-84
2023/08/16 04:11:54;;;;;;;1.80;1.70;;;;;;;;;;6180282;23;20266;-84
2023/08/16 04:14:22;;;;;;;1.70;1.60;;;;;;;;;;6180781;23;20668;-83
2023/08/16 04:16:49;;;;;;;1.60;1.50;;;;;;;;;;6180420;23;20241;-83
2023/08/16 04:19:18;;;;;;;1.40;1.30;;;;;;;;;;6182131;23;20265;-84
2023/08/16 04:21:45;;;;;;;1.40;1.30;;;;;;;;;;6181996;23;20184;-85
2023/08/16 04:24:14;;;;;;;2.35;2.13;;;;;;;;;;6182201;23;20225;-84
2023/08/16 04:26:43;;;;;;;1.80;1.70;;;;;;;;;;6182075;23;20253;-84
2023/08/16 04:29:11;;;;;;;1.25;1.17;;;;;;;;;;6182048;23;20237;-84
2023/08/16 04:31:38;;;;;;;1.50;1.40;;;;;;;;;;6182290;23;20573;-84
2023/08/16 04:34:07;;;;;;;1.70;1.60;;;;;;;;;;6181737;23;20202;-84
2023/08/16 04:36:36;;;;;;;1.20;1.20;;;;;;;;;;6182293;23;20189;-84
2023/08/16 04:39:03;;;;;;;1.50;1.40;;;;;;;;;;6182528;23;20198;-84
2023/08/16 04:41:31;;;;;;;1.30;1.20;;;;;;;;;;6182498;23;20594;-84
2023/08/16 04:43:58;;;;;;;1.10;1.10;;;;;;;;;;6182577;23;20229;-84
2023/08/16 04:46:26;;;;;;;1.30;1.20;;;;;;;;;;6183012;23;20185;-83
2023/08/16 04:48:53;;;;;;;1.40;1.30;;;;;;;;;;6182440;23;20206;-83
2023/08/16 04:51:21;;;;;;;1.40;1.30;;;;;;;;;;6183065;23;20289;-84
2023/08/16 04:53:50;;;;;;;0.90;0.90;;;;;;;;;;6182014;23;20198;-84
2023/08/16 04:56:17;;;;;;;1.40;1.30;;;;;;;;;;6182797;23;20175;-83
2023/08/16 04:58:45;;;;;;;1.00;1.00;;;;;;;;;;6183601;23;20258;-83
2023/08/16 05:01:12;;;;;;;1.05;1.05;;;;;;;;;;6182199;23;20709;-83
2023/08/16 05:03:39;;;;;;;1.40;1.30;;;;;;;;;;6183159;23;20731;-84
2023/08/16 05:06:07;;;;;;;1.65;1.55;;;;;;;;;;6182663;23;20258;-83
2023/08/16 05:08:34;;;;;;;1.63;1.52;;;;;;;;;;6183370;23;20715;-84
2023/08/16 05:11:03;;;;;;;3.00;2.80;;;;;;;;;;6183936;23;20253;-83
2023/08/16 05:13:31;;;;;;;3.70;3.40;;;;;;;;;;6186985;23;20274;-83
2023/08/16 05:15:58;;;;;;;3.20;2.90;;;;;;;;;;6186491;23;20281;-83
2023/08/16 05:18:26;;;;;;;2.42;2.22;;;;;;;;;;6188034;23;20589;-84
2023/08/16 05:20:57;;;;;;;2.10;1.95;;;;;;;;;;6187403;23;20516;-83
2023/08/16 05:23:24;;;;;;;1.70;1.60;;;;;;;;;;6187545;23;20229;-84
2023/08/16 05:25:52;;;;;;;1.95;1.63;;;;;;;;;;6186812;23;20213;-84
2023/08/16 05:28:20;;;;;;;2.20;1.33;;;;;;;;;;6187953;23;20273;-85
2023/08/16 05:30:48;;;;;;;1.00;1.00;;;;;;;;;;6187608;23;20257;-84
2023/08/16 05:33:15;;;;;;;15.20;3.30;;;;;;;;;;6187402;23;20254;-84
2023/08/16 05:35:43;;;;;;;4.95;2.40;;;;;;;;;;6186800;23;20180;-85
2023/08/16 05:38:10;;;;;;;2.15;1.65;;;;;;;;;;6185741;23;20198;-77
2023/08/16 05:40:38;;;;;;;1.58;1.15;;;;;;;;;;6184698;23;20689;-77
2023/08/16 05:43:06;;;;;;;1.90;1.70;;;;;;;;;;6184371;23;20190;-77
2023/08/16 05:45:34;;;;;;;3.30;1.40;;;;;;;;;;6184547;23;20253;-77
2023/08/16 05:48:02;;;;;;;2.22;2.03;;;;;;;;;;6185175;23;20306;-77
2023/08/16 05:50:29;;;;;;;2.25;2.08;;;;;;;;;;6185700;23;20174;-77
2023/08/16 05:52:57;;;;;;;1.35;1.25;;;;;;;;;;6185427;23;20273;-77
2023/08/16 05:55:24;;;;;;;1.73;1.63;;;;;;;;;;6185374;23;20673;-77
2023/08/16 05:57:52;;;;;;;2.08;1.85;;;;;;;;;;6184716;23;20174;-78
2023/08/16 06:00:20;;;;;;;1.50;1.40;;;;;;;;;;6185179;23;20684;-77
2023/08/16 06:02:49;;;;;;;1.13;1.10;;;;;;;;;;6185128;23;20195;-78
2023/08/16 06:05:17;;;;;;;1.00;1.00;;;;;;;;;;6186620;23;20217;-77
2023/08/16 06:07:44;;;;;;;1.77;1.58;;;;;;;;;;6186785;23;20253;-77
2023/08/16 06:10:12;;;;;;;2.42;2.30;;;;;;;;;;6185326;23;20198;-77
2023/08/16 06:12:39;;;;;;;1.70;1.60;;;;;;;;;;6184807;23;20282;-78
2023/08/16 06:15:11;;;;;;;6.25;3.10;;;;;;;;;;6186497;23;20208;-77
2023/08/16 06:17:38;;;;;;;3.25;2.75;;;;;;;;;;6186224;23;20637;-77
2023/08/16 06:20:10;;;;;;;3.45;2.80;;;;;;;;;;6185422;23;20569;-78
2023/08/16 06:22:38;;;;;;;2.13;2.03;;;;;;;;;;6187181;23;20198;-77
2023/08/16 06:25:07;;;;;;;2.60;2.40;;;;;;;;;;6185346;23;20517;-77
2023/08/16 06:27:34;;;;;;;4.05;2.90;;;;;;;;;;6184222;23;20504;-77
2023/08/16 06:30:02;;;;;;;2.05;1.80;;;;;;;;;;6184788;23;20198;-77
2023/08/16 06:32:29;;;;;;;1.38;1.25;;;;;;;;;;6184072;23;20221;-77
2023/08/16 06:34:57;;;;;;;3.55;2.72;;;;;;;;;;6183875;23;20175;-77
2023/08/16 06:37:26;;;;;;;3.08;2.70;;;;;;;;;;6184526;23;20198;-77
2023/08/16 06:39:53;;;;;;;2.25;2.05;;;;;;;;;;6183962;23;20245;-76
2023/08/16 06:42:21;;;;;;;10.80;3.08;;;;;;;;;;6184263;23;20529;-77
2023/08/16 06:44:48;;;;;;;3.00;2.72;;;;;;;;;;6183677;23;20174;-77
2023/08/16 06:47:16;;;;;;;3.88;3.55;;;;;;;;;;6184643;23;20184;-77
2023/08/16 06:49:44;;;;;;;3.58;3.33;;;;;;;;;;6184252;23;20281;-77
2023/08/16 06:52:11;;;;;;;3.22;3.00;;;;;;;;;;6183052;23;20175;-77
2023/08/16 06:54:42;;;;;;;3.50;3.20;;;;;;;;;;6184018;23;20210;-77
2023/08/16 06:57:11;;;;;;;2.80;2.30;;;;;;;;;;6184718;23;20197;-77
2023/08/16 06:59:39;;;;;;;3.78;3.45;;;;;;;;;;6184451;23;20540;-77
2023/08/16 07:02:10;;;;;;;3.47;3.17;;;;;;;;;;6183638;23;20230;-76
2023/08/16 07:04:39;;;;;;;30.30;6.28;;;;;;;;;;6185419;23;20158;-76
2023/08/16 07:07:06;;;;;;;16.33;4.82;;;;;;;;;;6185123;23;20653;-77
2023/08/16 07:09:33;;;;;;;7.65;2.97;;;;;;;;;;6184498;23;20198;-77
2023/08/16 07:12:02;;;;;;;4.72;3.67;;;;;;;;;;6183918;23;20197;-77
2023/08/16 07:14:30;;;;;;;3.10;2.80;;;;;;;;;;6184090;23;20579;-78
2023/08/16 07:16:57;;;;;;;1.92;1.73;;;;;;;;;;6184011;23;20261;-77
2023/08/16 07:19:25;;;;;;;2.28;2.08;;;;;;;;;;6184143;23;20249;-77
2023/08/16 07:21:52;;;;;;;5.13;3.15;;;;;;;;;;6184618;23;20257;-78
2023/08/16 07:24:20;;;;;;;1.95;1.85;;;;;;;;;;6185694;23;20273;-77
2023/08/16 07:26:47;;;;;;;3.95;3.15;;;;;;;;;;6184943;23;20261;-77
2023/08/16 07:29:16;;;;;;;2.90;2.50;;;;;;;;;;6184624;23;20609;-76
2023/08/16 07:31:43;;;;;;;5.10;4.05;;;;;;;;;;6184132;23;20689;-78
2023/08/16 07:34:11;;;;;;;4.47;4.07;;;;;;;;;;6184542;23;20194;-77
2023/08/16 07:36:38;;;;;;;3.83;3.22;;;;;;;;;;6184417;23;20210;-77
2023/08/16 07:39:06;;;;;;;2.58;2.38;;;;;;;;;;6184249;23;20174;-77
2023/08/16 07:41:34;;;;;;;4.00;2.28;;;;;;;;;;6184180;23;20565;-77
2023/08/16 07:44:01;;;;;;;2.53;2.33;;;;;;;;;;6183935;23;20221;-77
2023/08/16 07:46:30;;;;;;;2.83;2.63;;;;;;;;;;6184261;23;20250;-77
2023/08/16 07:48:58;;;;;;;8.52;3.58;;;;;;;;;;6185780;23;20181;-77
2023/08/16 07:51:25;;;;;;;3.00;2.72;;;;;;;;;;6184900;23;20501;-78
2023/08/16 07:53:52;;;;;;;2.22;1.92;;;;;;;;;;6186499;23;20296;-77
2023/08/16 07:56:20;;;;;;;1.80;1.70;;;;;;;;;;6185622;23;20205;-76
2023/08/16 07:58:47;;;;;;;2.90;2.60;;;;;;;;;;6186220;23;20249;-76
2023/08/16 08:01:15;;;;;;;5.57;2.83;;;;;;;;;;6186725;23;20202;-77
2023/08/16 08:03:44;;;;;;;3.10;2.90;;;;;;;;;;6185590;23;20233;-77
2023/08/16 08:06:11;;;;;;;3.03;2.83;;;;;;;;;;6186049;23;20253;-77
2023/08/16 08:08:39;;;;;;;3.65;3.35;;;;;;;;;;6185736;23;20237;-76
2023/08/16 08:11:07;;;;;;;3.35;2.85;;;;;;;;;;6185673;23;20529;-77
2023/08/16 08:13:35;;;;;;;2.65;2.45;;;;;;;;;;6185842;23;20194;-77
2023/08/16 08:16:02;;;;;;;2.72;2.53;;;;;;;;;;6185393;23;20577;-77
2023/08/16 08:18:30;;;;;;;2.47;2.28;;;;;;;;;;6186088;23;20257;-77
2023/08/16 08:20:59;;;;;;;4.53;2.60;;;;;;;;;;6186088;23;20170;-77
2023/08/16 08:23:27;;;;;;;2.75;2.55;;;;;;;;;;6184984;23;20270;-77
2023/08/16 08:25:54;;;;;;;3.40;3.10;;;;;;;;;;6185445;23;20181;-77
2023/08/16 08:28:22;;;;;;;4.03;3.22;;;;;;;;;;6186470;23;20253;-77
2023/08/16 08:30:50;;;;;;;3.03;2.60;;;;;;;;;;6186007;23;20581;-77
2023/08/16 08:33:17;;;;;;;2.67;2.47;;;;;;;;;;6186540;23;20201;-77
2023/08/16 08:35:46;;;;;;;2.65;2.45;;;;;;;;;;6185647;23;20181;-77
2023/08/16 08:38:15;;;;;;;2.75;2.25;;;;;;;;;;6186081;23;20174;-77
2023/08/16 08:40:43;;;;;;;2.08;1.80;;;;;;;;;;6186076;23;20171;-77
2023/08/16 08:43:11;;;;;;;1.90;1.80;;;;;;;;;;6186166;23;20281;-77
2023/08/16 08:45:39;;;;;;;2.17;1.98;;;;;;;;;;6188287;23;20253;-78
2023/08/16 08:48:07;;;;;;;2.25;1.85;;;;;;;;;;6187608;23;20253;-76
2023/08/16 08:50:37;;;;;;;1.92;1.83;;;;;;;;;;6187283;23;20198;-77
2023/08/16 08:53:05;;;;;;;3.30;3.10;;;;;;;;;;6188304;23;20677;-77
2023/08/16 08:55:33;;;;;;;4.55;3.08;;;;;;;;;;6187907;23;20206;-78
2023/08/16 08:58:04;;;;;;;2.30;2.10;;;;;;;;;;6188977;23;20573;-76
2023/08/16 09:00:37;;;;;;;2.25;2.15;;;;;;;;;;6187958;23;20607;-77
2023/08/16 09:03:08;;;;;;;7.25;3.63;;;;;;;;;;6187161;23;20249;-77
2023/08/16 09:05:37;;;;;;;2.80;2.60;;;;;;;;;;6187767;23;20193;-78
2023/08/16 09:08:05;;;;;;;4.60;2.70;;;;;;;;;;6187528;23;20174;-77
2023/08/16 09:10:38;;;;;;;3.08;2.78;;;;;;;;;;6187508;23;20236;-77
2023/08/16 09:13:08;;;;;;;3.38;2.33;;;;;;;;;;6187862;23;20273;-77
2023/08/16 09:15:35;;;;;;;3.85;2.75;;;;;;;;;;6188701;23;20158;-77
2023/08/16 09:18:11;;;;;;;2.97;2.72;;;;;;;;;;6188330;23;20238;-78
2023/08/16 09:20:42;;;;;;;2.28;2.08;;;;;;;;;;6187653;23;20238;-77
2023/08/16 09:23:14;;;;;;;5.55;4.07;;;;;;;;;;6187784;23;20245;-78
2023/08/16 09:25:44;;;;;;;3.00;2.80;;;;;;;;;;6188128;23;20229;-77
2023/08/16 09:28:12;;;;;;;3.00;2.72;;;;;;;;;;6188801;23;20163;-77
2023/08/16 09:30:40;;;;;;;4.25;3.45;;;;;;;;;;6188719;23;20735;-77
2023/08/16 09:33:08;;;;;;;3.22;3.03;;;;;;;;;;6188320;23;20613;-78
2023/08/16 09:35:42;;;;;;;2.50;2.40;;;;;;;;;;6188059;23;20658;-77
2023/08/16 09:38:09;;;;;;;2.80;2.60;;;;;;;;;;6188128;23;20197;-77
2023/08/16 09:40:38;;;;;;;6.97;2.85;;;;;;;;;;6187624;23;20555;-77
2023/08/16 09:43:07;;;;;;;3.90;3.60;;;;;;;;;;6187739;23;20582;-77
2023/08/16 09:45:36;;;;;;;2.45;2.30;;;;;;;;;;6188297;23;20253;-77
2023/08/16 09:48:04;;;;;;;9.32;3.92;;;;;;;;;;6188799;23;20512;-77
2023/08/16 09:50:35;;;;;;;6.75;3.35;;;;;;;;;;6188889;23;20198;-77
2023/08/16 09:53:04;;;;;;;2.63;2.47;;;;;;;;;;6187920;23;20198;-76
2023/08/16 09:55:35;;;;;;;2.83;2.63;;;;;;;;;;6187665;23;20258;-78
2023/08/16 09:58:04;;;;;;;2.50;2.30;;;;;;;;;;6188988;23;20163;-78
2023/08/16 10:00:34;;;;;;;2.22;2.00;;;;;;;;;;6187939;23;20181;-77
2023/08/16 10:03:03;;;;;;;3.30;3.00;;;;;;;;;;6188535;23;20194;-78
2023/08/16 10:05:31;;;;;;;2.80;2.60;;;;;;;;;;6188251;23;20182;-78
2023/08/16 10:08:03;;;;;;;3.17;2.85;;;;;;;;;;6188394;23;20233;-78
2023/08/16 10:10:32;;;;;;;2.30;2.20;;;;;;;;;;6187947;23;20163;-77
2023/08/16 10:13:01;;;;;;;3.53;3.28;;;;;;;;;;6187245;23;20202;-78
2023/08/16 10:15:32;;;;;;;3.03;2.83;;;;;;;;;;6187750;23;20181;-77
2023/08/16 10:18:02;;;;;;;3.08;2.72;;;;;;;;;;6188345;23;20163;-77
2023/08/16 10:20:33;;;;;;;3.45;3.15;;;;;;;;;;6188934;23;20185;-80
2023/08/16 10:23:02;;;;;;;4.15;3.05;;;;;;;;;;6187073;23;20195;-77
2023/08/16 10:25:36;;;;;;;2.05;1.95;;;;;;;;;;6187294;23;20253;-76
2023/08/16 10:28:05;;;;;;;2.75;2.55;;;;;;;;;;6188053;23;20166;-77
2023/08/16 10:30:34;;;;;;;2.50;2.40;;;;;;;;;;6188704;23;20221;-77
2023/08/16 10:33:07;;;;;;;2.25;2.15;;;;;;;;;;6187075;23;20221;-77
2023/08/16 10:35:35;;;;;;;2.58;2.40;;;;;;;;;;6186973;23;20163;-77
2023/08/16 10:38:03;;;;;;;3.42;3.22;;;;;;;;;;6187958;23;20673;-77
2023/08/16 10:40:30;;;;;;;3.13;2.92;;;;;;;;;;6187917;23;20180;-76
2023/08/16 10:42:58;;;;;;;3.25;3.05;;;;;;;;;;6187120;23;20217;-77
2023/08/16 10:45:28;;;;;;;2.63;2.42;;;;;;;;;;6188699;23;20557;-77
2023/08/16 10:47:57;;;;;;;2.70;2.50;;;;;;;;;;6188176;23;20714;-77
2023/08/16 10:50:35;;;;;;;3.35;2.72;;;;;;;;;;6188464;23;20174;-77
2023/08/16 10:53:02;;;;;;;2.80;2.55;;;;;;;;;;6188633;23;20222;-77
2023/08/16 10:55:30;;;;;;;2.28;2.17;;;;;;;;;;6188097;23;20220;-77
2023/08/16 10:57:57;;;;;;;2.58;2.40;;;;;;;;;;6189540;23;20178;-77
2023/08/16 11:00:32;;;;;;;2.78;2.20;;;;;;;;;;6189654;23;20182;-77
2023/08/16 11:03:04;;;;;;;2.25;2.13;;;;;;;;;;6188743;23;20198;-77
2023/08/16 11:05:34;;;;;;;2.83;2.05;;;;;;;;;;6188625;23;20159;-77
2023/08/16 11:08:02;;;;;;;1.92;1.83;;;;;;;;;;6188779;23;20163;-77
2023/08/16 11:10:37;;;;;;;2.08;1.98;;;;;;;;;;6188564;23;20638;-78
2023/08/16 11:13:09;;;;;;;3.38;1.92;;;;;;;;;;6188479;23;20205;-77
2023/08/16 11:15:37;;;;;;;73.90;9.30;;;;;;;;;;6188478;23;20190;-77
2023/08/16 11:18:06;;;;;;;13.13;3.72;;;;;;;;;;6189635;23;20217;-77
2023/08/16 11:20:34;;;;;;;2.38;2.15;;;;;;;;;;6187610;23;20186;-77
2023/08/16 11:23:02;;;;;;;2.53;2.33;;;;;;;;;;6188573;23;20245;-76
2023/08/16 11:25:34;;;;;;;2.08;1.98;;;;;;;;;;6188493;23;20234;-76
2023/08/16 11:28:03;;;;;;;2.08;1.98;;;;;;;;;;6192729;23;20220;-77
2023/08/16 11:30:31;;;;;;;2.10;2.00;;;;;;;;;;6193449;23;20189;-77
2023/08/16 11:32:58;;;;;;;2.10;1.80;;;;;;;;;;6191646;23;20581;-76
2023/08/16 11:35:28;;;;;;;3.05;2.13;;;;;;;;;;6191529;23;20680;-79
2023/08/16 11:37:55;;;;;;;2.13;1.92;;;;;;;;;;6188855;23;20187;-78
2023/08/16 11:40:23;;;;;;;1.63;1.52;;;;;;;;;;6189819;23;20174;-78
2023/08/16 11:42:50;;;;;;;1.92;1.83;;;;;;;;;;6188898;23;20198;-79
2023/08/16 11:45:23;;;;;;;1.42;1.33;;;;;;;;;;6189583;23;20566;-78
2023/08/16 11:47:52;;;;;;;2.10;2.00;;;;;;;;;;6190262;23;20395;-78
2023/08/16 11:50:19;;;;;;;1.73;1.63;;;;;;;;;;6192334;23;20265;-78
2023/08/16 11:52:58;;;;;;;1.80;1.70;;;;;;;;;;6190637;23;20539;-79
2023/08/16 11:55:29;;;;;;;1.92;1.83;;;;;;;;;;6192297;23;20186;-79
2023/08/16 11:58:04;;;;;;;1.45;1.45;;;;;;;;;;6189451;23;20163;-77
2023/08/16 12:00:32;;;;;;;1.52;1.42;;;;;;;;;;6189644;23;20158;-78
2023/08/16 12:03:02;;;;;;;1.80;1.70;;;;;;;;;;6189422;23;20194;-77
2023/08/16 12:05:36;;;;;;;1.70;1.60;;;;;;;;;;6189987;23;20500;-79
2023/08/16 12:08:07;;;;;;;1.92;1.83;;;;;;;;;;6189691;23;20165;-78
2023/08/16 12:10:35;;;;;;;1.50;1.40;;;;;;;;;;6190451;23;20237;-78
2023/08/16 12:13:12;;;;;;;2.63;1.70;;;;;;;;;;6189397;23;20282;-77
2023/08/16 12:15:41;;;;;;;2.63;1.90;;;;;;;;;;6189601;23;20166;-78
2023/08/16 12:18:09;;;;;;;3.88;1.30;;;;;;;;;;6190214;23;20485;-77
2023/08/16 12:20:36;;;;;;;1.83;1.73;;;;;;;;;;6189913;23;20253;-77
2023/08/16 12:23:05;;;;;;;2.05;1.95;;;;;;;;;;6189489;23;20577;-77
2023/08/16 12:25:33;;;;;;;1.70;1.60;;;;;;;;;;6189573;23;20248;-78
2023/08/16 12:28:00;;;;;;;1.60;1.50;;;;;;;;;;6189763;23;20229;-78
2023/08/16 12:30:28;;;;;;;1.60;1.50;;;;;;;;;;6189425;23;20629;-78
2023/08/16 12:32:56;;;;;;;1.85;1.73;;;;;;;;;;6190066;23;20202;-78
2023/08/16 12:35:23;;;;;;;1.92;1.80;;;;;;;;;;6190625;23;20602;-77
2023/08/16 12:37:51;;;;;;;2.00;1.90;;;;;;;;;;6189716;23;20653;-78
2023/08/16 12:40:19;;;;;;;1.80;1.70;;;;;;;;;;6188938;23;20517;-77
2023/08/16 12:42:47;;;;;;;1.90;1.80;;;;;;;;;;6187668;23;20190;-78
2023/08/16 12:45:14;;;;;;;2.03;1.92;;;;;;;;;;6187466;23;20513;-78
2023/08/16 12:47:42;;;;;;;1.90;1.80;;;;;;;;;;6187927;23;20253;-78
2023/08/16 12:50:10;;;;;;;1.80;1.70;;;;;;;;;;6187149;23;20717;-77
2023/08/16 12:52:37;;;;;;;1.92;1.80;;;;;;;;;;6186653;23;20202;-77
2023/08/16 12:55:06;;;;;;;2.03;1.92;;;;;;;;;;6187138;23;20644;-78
2023/08/16 12:57:34;;;;;;;1.58;1.48;;;;;;;;;;6188168;23;20542;-77
2023/08/16 13:00:02;;;;;;;2.03;1.92;;;;;;;;;;6188551;23;20179;-79
2023/08/16 13:02:29;;;;;;;1.85;1.67;;;;;;;;;;6187986;23;20724;-78
2023/08/16 13:04:57;;;;;;;1.67;1.58;;;;;;;;;;6187620;23;20257;-78
2023/08/16 13:07:25;;;;;;;2.10;1.90;;;;;;;;;;6185644;23;20225;-77
2023/08/16 13:09:52;;;;;;;1.52;1.42;;;;;;;;;;6185781;23;20506;-78
2023/08/16 13:12:19;;;;;;;1.58;1.50;;;;;;;;;;6186658;23;20200;-81
2023/08/16 13:14:48;;;;;;;1.50;1.40;;;;;;;;;;6187181;23;20225;-81
2023/08/16 13:17:16;;;;;;;3.30;1.80;;;;;;;;;;6186721;23;20586;-80
2023/08/16 13:19:43;;;;;;;1.52;1.42;;;;;;;;;;6186952;23;20258;-80
2023/08/16 13:22:12;;;;;;;2.20;1.67;;;;;;;;;;6185767;23;20174;-80
2023/08/16 13:24:39;;;;;;;1.88;1.77;;;;;;;;;;6186925;23;20261;-80
2023/08/16 13:27:07;;;;;;;1.70;1.60;;;;;;;;;;6185729;23;20253;-80
2023/08/16 13:29:34;;;;;;;1.77;1.67;;;;;;;;;;6186090;23;20248;-80
2023/08/16 13:32:03;;;;;;;1.33;1.30;;;;;;;;;;6186054;23;20185;-80
2023/08/16 13:34:31;;;;;;;1.70;1.60;;;;;;;;;;6186943;23;20194;-80
2023/08/16 13:36:58;;;;;;;1.70;1.60;;;;;;;;;;6186610;23;20180;-81
2023/08/16 13:39:28;;;;;;;2.00;1.90;;;;;;;;;;6186492;23;20262;-81
2023/08/16 13:41:57;;;;;;;1.70;1.60;;;;;;;;;;6187024;23;20178;-80
2023/08/16 13:44:25;;;;;;;1.65;1.55;;;;;;;;;;6186705;23;20198;-81
2023/08/16 13:46:52;;;;;;;2.00;1.90;;;;;;;;;;6187269;23;20880;-80
2023/08/16 13:49:21;;;;;;;1.70;1.60;;;;;;;;;;6187219;23;20253;-79
2023/08/16 13:51:48;;;;;;;1.75;1.65;;;;;;;;;;6185919;23;20215;-79
2023/08/16 13:54:16;;;;;;;1.65;1.58;;;;;;;;;;6186017;23;20234;-79
2023/08/16 13:56:43;;;;;;;2.08;1.98;;;;;;;;;;6186472;23;20178;-80
2023/08/16 13:59:11;;;;;;;2.17;2.00;;;;;;;;;;6186664;23;20196;-79
2023/08/16 14:01:39;;;;;;;1.90;1.80;;;;;;;;;;6186374;23;20178;-79
2023/08/16 14:04:06;;;;;;;2.55;1.55;;;;;;;;;;6186553;23;20304;-79
2023/08/16 14:06:35;;;;;;;1.58;1.48;;;;;;;;;;6185781;23;20214;-80
2023/08/16 14:09:03;;;;;;;1.67;1.58;;;;;;;;;;6186548;23;20184;-79
2023/08/16 14:11:30;;;;;;;1.80;1.70;;;;;;;;;;6185713;23;20175;-80
2023/08/16 14:13:58;;;;;;;1.30;1.30;;;;;;;;;;6185960;23;20280;-80
2023/08/16 14:16:25;;;;;;;1.60;1.50;;;;;;;;;;6185817;23;20193;-80
2023/08/16 14:18:53;;;;;;;1.70;1.60;;;;;;;;;;6186241;23;20178;-80
2023/08/16 14:21:21;;;;;;;1.40;1.30;;;;;;;;;;6187308;23;20677;-80
2023/08/16 14:23:49;;;;;;;1.30;1.20;;;;;;;;;;6185997;23;20673;-79
2023/08/16 14:26:18;;;;;;;1.63;1.52;;;;;;;;;;6185352;23;20253;-80
2023/08/16 14:28:45;;;;;;;1.48;1.42;;;;;;;;;;6186085;23;20492;-81
2023/08/16 14:31:13;;;;;;;1.15;1.13;;;;;;;;;;6185707;23;20185;-80
2023/08/16 14:33:40;;;;;;;1.35;1.30;;;;;;;;;;6185516;23;20595;-80
2023/08/16 14:36:08;;;;;;;1.85;1.75;;;;;;;;;;6185776;23;20245;-79
2023/08/16 14:38:35;;;;;;;1.88;1.77;;;;;;;;;;6185818;23;20175;-81
2023/08/16 14:41:04;;;;;;;1.83;1.73;;;;;;;;;;6186017;23;20229;-79
2023/08/16 14:43:32;;;;;;;1.75;1.65;;;;;;;;;;6185635;23;20269;-80
2023/08/16 14:45:59;;;;;;;1.85;1.75;;;;;;;;;;6185455;23;20792;-80
2023/08/16 14:48:27;;;;;;;1.85;1.75;;;;;;;;;;6185930;23;20260;-80
2023/08/16 14:50:54;;;;;;;2.55;1.70;;;;;;;;;;6185868;23;20257;-80